EDDC 210120Z 25002KT CAVOK 10/08 Q1025 EDDC 210050Z 30001KT CAVOK 10/08 Q1025 EDDC 210020Z 24002KT CAVOK 10/08 Q1025 EDDC 202350Z VRB01KT CAVOK 10/08 Q1025 EDDC 202320Z VRB01KT CAVOK 10/08 Q1025 EDDC 202250Z 30002KT CAVOK 11/08 Q1025 EDDC 202220Z 28002KT CAVOK 11/08 Q1025 EDDC 202150Z 31002KT CAVOK 11/08 Q1025 EDDC 202120Z 00000KT CAVOK 11/08 Q1024 EDDC 202050Z 27001KT CAVOK 11/08 Q1024 EDDC 202020Z VRB01KT CAVOK 11/08 Q1024 EDDC 201950Z VRB01KT CAVOK 11/08 Q1024 NOSIG EDDC 201920Z 00000KT CAVOK 11/07 Q1024 NOSIG EDDC 201850Z 34001KT CAVOK 11/08 Q1023 NOSIG EDDC 201820Z 31001KT CAVOK 11/08 Q1023 NOSIG EDDC 201750Z 28001KT CAVOK 11/07 Q1023 NOSIG EDDC 201720Z 01002KT 9999 FEW023 11/07 Q1023 NOSIG EDDC 201650Z 01002KT 9999 FEW023 11/08 Q1022 NOSIG EDDC 201620Z 02004KT 9999 FEW026 12/08 Q1022 NOSIG EDDC 201550Z 03004KT 9999 FEW023 12/07 Q1022 NOSIG EDDC 201520Z 03004KT 350V060 9999 FEW029 12/07 Q1022 NOSIG EDDC 201450Z 07004KT 9999 FEW029 12/06 Q1021 NOSIG EDDC 201420Z 05004KT 9999 FEW029 12/06 Q1021 NOSIG EDDC 201350Z 07005KT 9999 FEW031 12/06 Q1021 NOSIG EDDC 201320Z 06007KT 9999 FEW031 13/06 Q1021 NOSIG EDDC 201250Z 07007KT 020V100 9999 FEW029 13/05 Q1021 NOSIG EDDC 201220Z 08007KT 040V110 9999 SCT025 13/06 Q1021 NOSIG EDDC 201150Z 06006KT 030V090 9999 SCT019 13/07 Q1021 NOSIG EDDC 201120Z 06006KT 010V080 9999 BKN017 12/08 Q1021 NOSIG EDDC 201050Z 04005KT 350V100 9999 BKN015 12/08 Q1021 NOSIG EDDC 201020Z 04005KT 010V070 9999 BKN014 11/08 Q1021 BECMG SCT015 EDDC 200950Z 03005KT 350V060 9999 SCT013 11/08 Q1021 NOSIG EDDC 200920Z 01005KT 340V040 9999 SCT011 11/08 Q1021 NOSIG EDDC 200850Z 32004KT 290V020 9999 FEW016 11/08 Q1020 NOSIG EDDC 200820Z 33004KT 290V010 9999 FEW016 10/08 Q1020 NOSIG EDDC 200750Z 35003KT 9999 FEW010 10/08 Q1020 NOSIG EDDC 200720Z 36003KT CAVOK 10/08 Q1020 NOSIG EDDC 200650Z 36003KT CAVOK 09/08 Q1020 NOSIG EDDC 200620Z 35003KT CAVOK 09/08 Q1019 NOSIG EDDC 200550Z 35003KT CAVOK 09/08 Q1019 NOSIG EDDC 200520Z 35002KT 9999 BKN048 09/08 Q1019 NOSIG EDDC 200450Z VRB02KT 9999 OVC047 09/08 Q1019 NOSIG EDDC 200420Z VRB02KT 9999 OVC047 09/08 Q1019 NOSIG EDDC 200350Z VRB02KT 9999 OVC047 09/08 Q1018 NOSIG EDDC 200320Z 03002KT 9999 OVC047 09/08 Q1018 EDDC 200250Z 01002KT 9999 OVC047 10/08 Q1018 EDDC 200220Z VRB01KT CAVOK 09/08 Q1018 EDDC 200150Z VRB02KT CAVOK 10/08 Q1018 EDDC 200120Z 03002KT CAVOK 10/08 Q1018 EDDC 200050Z 02003KT CAVOK 10/08 Q1018 EDDC 200020Z 04002KT 9999 OVC047 10/08 Q1018 EDDC 192350Z 02001KT 9999 OVC047 10/09 Q1018 EDDC 192320Z 06001KT 9999 OVC045 10/08 Q1018 EDDC 192250Z VRB01KT 9999 OVC046 10/08 Q1018 EDDC 192220Z VRB01KT 9999 BKN044 11/08 Q1018 EDDC 192150Z 06002KT 9999 BKN044 10/08 Q1018 EDDC 192120Z VRB02KT 9999 BKN044 10/08 Q1018 EDDC 192050Z VRB01KT 9999 BKN044 11/08 Q1018 EDDC 192020Z VRB01KT 9999 BKN045 11/08 Q1018 EDDC 191950Z 01002KT 9999 BKN045 10/08 Q1018 NOSIG EDDC 191920Z VRB01KT 9999 BKN043 11/07 Q1018 NOSIG EDDC 191850Z 02002KT 9999 BKN043 11/07 Q1017 NOSIG EDDC 191820Z 36002KT 9999 BKN044 11/07 Q1017 NOSIG EDDC 191750Z 02002KT 9999 BKN044 11/07 Q1017 NOSIG EDDC 191720Z 36002KT 9999 FEW033 BKN043 11/07 Q1017 NOSIG EDDC 191650Z 02003KT 9999 FEW033 BKN043 12/07 Q1017 NOSIG EDDC 191620Z 04005KT 9999 FEW033 BKN043 12/06 Q1017 NOSIG EDDC 191550Z 04008KT 9999 SCT033 BKN042 12/06 Q1017 NOSIG EDDC 191520Z 04007KT 010V070 9999 FEW040 BKN046 13/06 Q1017 NOSIG EDDC 191450Z 05006KT 010V080 9999 BKN045 13/06 Q1017 NOSIG EDDC 191420Z 04006KT 9999 FEW033 BKN041 12/06 Q1017 NOSIG EDDC 191350Z 05006KT 020V080 9999 FEW033 BKN042 13/06 Q1017 NOSIG

METAR Messwerte

Zurück zur Übersicht

Ort
m ü. NN
Zeit Temperatur Taupunkt Rel.
Luftfeuchte
Luftdruck:
Altimeter
NN
Station
Wind in Beaufort
(Knoten)
Sichtweite
(Meter)
Wolken
(Meter über Grund)
Wettererscheinung
Dresden-Klotzsche
226
Di 21.09. 03:2010887 %1025
1026
998
WSW 1 (2)>= 10000Nicht signifikant 
Dresden-Klotzsche
226
Di 21.09. 02:5010887 %1025
1026
998
WNW 1 (1)>= 10000Nicht signifikant 
Dresden-Klotzsche
226
Di 21.09. 02:2010887 %1025
1026
998
WSW 1 (2)>= 10000Nicht signifikant 
Dresden-Klotzsche
226
Di 21.09. 01:5010887 %1025
1026
998
Uml 1 (1)>= 10000Nicht signifikant 
Dresden-Klotzsche
226
Di 21.09. 01:2010887 %1025
1026
998
Uml 1 (1)>= 10000Nicht signifikant 
Dresden-Klotzsche
226
Di 21.09. 00:5011882 %1025
1025
998
WNW 1 (2)>= 10000Nicht signifikant 
Dresden-Klotzsche
226
Di 21.09. 00:2011882 %1025
1025
998
W 1 (2)>= 10000Nicht signifikant 
Dresden-Klotzsche
226
Mo 20.09. 23:5011882 %1025
1025
998
NW 1 (2)>= 10000Nicht signifikant 
Dresden-Klotzsche
226
Mo 20.09. 23:2011882 %1024
1024
997
Windstill>= 10000Nicht signifikant 
Dresden-Klotzsche
226
Mo 20.09. 22:5011882 %1024
1024
997
W 1 (1)>= 10000Nicht signifikant 
Dresden-Klotzsche
226
Mo 20.09. 22:2011882 %1024
1024
997
Uml 1 (1)>= 10000Nicht signifikant 
Dresden-Klotzsche
226
Mo 20.09. 21:5011882 %1024
1024
997
Uml 1 (1)>= 10000Nicht signifikant 
Dresden-Klotzsche
226
Mo 20.09. 21:2011776 %1024
1024
997
Windstill>= 10000Nicht signifikant 
Dresden-Klotzsche
226
Mo 20.09. 20:5011882 %1023
1023
996
NNW 1 (1)>= 10000Nicht signifikant 
Dresden-Klotzsche
226
Mo 20.09. 20:2011882 %1023
1023
996
NW 1 (1)>= 10000Nicht signifikant 
Dresden-Klotzsche
226
Mo 20.09. 19:5011776 %1023
1023
996
W 1 (1)>= 10000Nicht signifikant 
Dresden-Klotzsche
226
Mo 20.09. 19:2011776 %1023
1023
996
N 1 (2)>= 10000Leicht bewölkt (700) 
Dresden-Klotzsche
226
Mo 20.09. 18:5011882 %1022
1022
995
N 1 (2)>= 10000Leicht bewölkt (700) 
Dresden-Klotzsche
226
Mo 20.09. 18:2012876 %1022
1022
995
NNO 2 (4)>= 10000Leicht bewölkt (790) 
Dresden-Klotzsche
226
Mo 20.09. 17:5012771 %1022
1022
995
NNO 2 (4)>= 10000Leicht bewölkt (700) 
Dresden-Klotzsche
226
Mo 20.09. 17:2012771 %1022
1022
995
NNO 2 (4)
N - ONO
>= 10000Leicht bewölkt (880) 
Dresden-Klotzsche
226
Mo 20.09. 16:5012667 %1021
1021
994
ONO 2 (4)>= 10000Leicht bewölkt (880) 
Dresden-Klotzsche
226
Mo 20.09. 16:2012667 %1021
1021
994
NO 2 (4)>= 10000Leicht bewölkt (880) 
Dresden-Klotzsche
226
Mo 20.09. 15:5012667 %1021
1021
994
ONO 2 (5)>= 10000Leicht bewölkt (940) 
Dresden-Klotzsche
226
Mo 20.09. 15:2013662 %1021
1021
994
ONO 3 (7)>= 10000Leicht bewölkt (940) 
Dresden-Klotzsche
226
Mo 20.09. 14:5013558 %1021
1021
994
ONO 3 (7)
NNO - O
>= 10000Leicht bewölkt (880) 
Dresden-Klotzsche
226
Mo 20.09. 14:2013662 %1021
1021
994
O 3 (7)
NO - OSO
>= 10000Wolkig (760) 
Dresden-Klotzsche
226
Mo 20.09. 13:5013767 %1021
1021
994
ONO 2 (6)
NNO - O
>= 10000Wolkig (580) 
Dresden-Klotzsche
226
Mo 20.09. 13:2012876 %1021
1021
994
ONO 2 (6)
N - O
>= 10000Stark bewölkt (520) 
Dresden-Klotzsche
226
Mo 20.09. 12:5012876 %1021
1021
994
NO 2 (5)
N - O
>= 10000Stark bewölkt (460) 
Dresden-Klotzsche
226
Mo 20.09. 12:2011882 %1021
1021
994
NO 2 (5)
N - ONO
>= 10000Stark bewölkt (430) 
Dresden-Klotzsche
226
Mo 20.09. 11:5011882 %1021
1021
994
NNO 2 (5)
N - ONO
>= 10000Wolkig (400) 
Dresden-Klotzsche
226
Mo 20.09. 11:2011882 %1021
1021
994
N 2 (5)
NNW - NO
>= 10000Wolkig (340) 
Dresden-Klotzsche
226
Mo 20.09. 10:5011882 %1020
1020
993
NW 2 (4)
WNW - NNO
>= 10000Leicht bewölkt (490) 
Dresden-Klotzsche
226
Mo 20.09. 10:2010887 %1020
1021
993
NNW 2 (4)
WNW - N
>= 10000Leicht bewölkt (490) 
Dresden-Klotzsche
226
Mo 20.09. 09:5010887 %1020
1021
993
N 2 (3)>= 10000Leicht bewölkt (300) 
Dresden-Klotzsche
226
Mo 20.09. 09:2010887 %1020
1021
993
N 2 (3)>= 10000Nicht signifikant 
Dresden-Klotzsche
226
Mo 20.09. 08:509893 %1020
1021
993
N 2 (3)>= 10000Nicht signifikant 
Dresden-Klotzsche
226
Mo 20.09. 08:209893 %1019
1020
992
N 2 (3)>= 10000Nicht signifikant 
Dresden-Klotzsche
226
Mo 20.09. 07:509893 %1019
1020
992
N 2 (3)>= 10000Nicht signifikant 
Dresden-Klotzsche
226
Mo 20.09. 07:209893 %1019
1020
992
N 1 (2)>= 10000Stark bewölkt (1500) 
Dresden-Klotzsche
226
Mo 20.09. 06:509893 %1019
1020
992
Uml 1 (2)>= 10000Bedeckt (1400) 
Dresden-Klotzsche
226
Mo 20.09. 06:209893 %1019
1020
992
Uml 1 (2)>= 10000Bedeckt (1400) 
Dresden-Klotzsche
226
Mo 20.09. 05:509893 %1018
1019
991
Uml 1 (2)>= 10000Bedeckt (1400) 
Dresden-Klotzsche
226
Mo 20.09. 05:209893 %1018
1019
991
NNO 1 (2)>= 10000Bedeckt (1400) 
Dresden-Klotzsche
226
Mo 20.09. 04:5010887 %1018
1019
991
N 1 (2)>= 10000Bedeckt (1400) 
Dresden-Klotzsche
226
Mo 20.09. 04:209893 %1018
1019
991
Uml 1 (1)>= 10000Nicht signifikant 
Dresden-Klotzsche
226
Mo 20.09. 03:5010887 %1018
1019
991
Uml 1 (2)>= 10000Nicht signifikant 
Dresden-Klotzsche
226
Mo 20.09. 03:2010887 %1018
1019
991
NNO 1 (2)>= 10000Nicht signifikant 
Dresden-Klotzsche
226
Mo 20.09. 02:5010887 %1018
1019
991
NNO 2 (3)>= 10000Nicht signifikant 
Dresden-Klotzsche
226
Mo 20.09. 02:2010887 %1018
1019
991
NO 1 (2)>= 10000Bedeckt (1400) 
Dresden-Klotzsche
226
Mo 20.09. 01:5010993 %1018
1019
991
NNO 1 (1)>= 10000Bedeckt (1400) 
Dresden-Klotzsche
226
Mo 20.09. 01:2010887 %1018
1019
991
ONO 1 (1)>= 10000Bedeckt (1400) 
Dresden-Klotzsche
226
Mo 20.09. 00:5010887 %1018
1019
991
Uml 1 (1)>= 10000Bedeckt (1400) 
Dresden-Klotzsche
226
Mo 20.09. 00:2011882 %1018
1018
991
Uml 1 (1)>= 10000Stark bewölkt (1300) 
Dresden-Klotzsche
226
So 19.09. 23:5010887 %1018
1019
991
ONO 1 (2)>= 10000Stark bewölkt (1300) 
Dresden-Klotzsche
226
So 19.09. 23:2010887 %1018
1019
991
Uml 1 (2)>= 10000Stark bewölkt (1300) 
Dresden-Klotzsche
226
So 19.09. 22:5011882 %1018
1018
991
Uml 1 (1)>= 10000Stark bewölkt (1300) 
Dresden-Klotzsche
226
So 19.09. 22:2011882 %1018
1018
991
Uml 1 (1)>= 10000Stark bewölkt (1400) 
Dresden-Klotzsche
226
So 19.09. 21:5010887 %1018
1019
991
N 1 (2)>= 10000Stark bewölkt (1400) 
Dresden-Klotzsche
226
So 19.09. 21:2011776 %1018
1018
991
Uml 1 (1)>= 10000Stark bewölkt (1300) 
Dresden-Klotzsche
226
So 19.09. 20:5011776 %1017
1017
990
NNO 1 (2)>= 10000Stark bewölkt (1300) 
Dresden-Klotzsche
226
So 19.09. 20:2011776 %1017
1017
990
N 1 (2)>= 10000Stark bewölkt (1300) 
Dresden-Klotzsche
226
So 19.09. 19:5011776 %1017
1017
990
NNO 1 (2)>= 10000Stark bewölkt (1300) 
Dresden-Klotzsche
226
So 19.09. 19:2011776 %1017
1017
990
N 1 (2)>= 10000Stark bewölkt (1300)
Leicht bewölkt (1000)
 
Dresden-Klotzsche
226
So 19.09. 18:5012771 %1017
1017
990
NNO 2 (3)>= 10000Stark bewölkt (1300)
Leicht bewölkt (1000)
 
Dresden-Klotzsche
226
So 19.09. 18:2012667 %1017
1017
990
NO 2 (5)>= 10000Stark bewölkt (1300)
Leicht bewölkt (1000)
 
Dresden-Klotzsche
226
So 19.09. 17:5012667 %1017
1017
990
NO 3 (8)>= 10000Stark bewölkt (1300)
Wolkig (1000)
 
Dresden-Klotzsche
226
So 19.09. 17:2013662 %1017
1017
990
NO 3 (7)
N - ONO
>= 10000Stark bewölkt (1400)
Leicht bewölkt (1200)
 
Dresden-Klotzsche
226
So 19.09. 16:5013662 %1017
1017
990
NO 2 (6)
N - O
>= 10000Stark bewölkt (1400) 
Dresden-Klotzsche
226
So 19.09. 16:2012667 %1017
1017
990
NO 2 (6)>= 10000Stark bewölkt (1200)
Leicht bewölkt (1000)
 
Dresden-Klotzsche
226
So 19.09. 15:5013662 %1017
1017
990
NO 2 (6)
NNO - O
>= 10000Stark bewölkt (1300)
Leicht bewölkt (1000)
 

Altimeter: Einstellung am Altimeter (Höhenmesser), die Höhe 0 muss auf diesen Luftdruckwert zeigen, damit das Gerät die Stationshöhe richtig anzeigt.

NN: Luftdruck reduziert auf "Normal Null", auf Meereshöhe, dieser von der Temperatur abhängige Wert wird bisweilen unkorrekt einfach als "Luftdruck" bezeichnet. Eigentlich nur eine fiktive Größe, die es erlaubt, Stationen auf unterschiedlichen Höhen miteinander zu vergleichen.

Station: Realer Luftdruck an der Station.